sensor_id;sensor_type;location;lat;lon;timestamp;pressure;altitude;pressure_sealevel;temperature;humidity
3434;BME280;1730;41.932;25.548;2024-03-29T00:01:17;99702.66;;;13.87;100.00
3434;BME280;1730;41.932;25.548;2024-03-29T00:03:43;99566.97;;;13.06;100.00
3434;BME280;1730;41.932;25.548;2024-03-29T00:06:09;99468.50;;;12.49;100.00
3434;BME280;1730;41.932;25.548;2024-03-29T00:08:34;99509.88;;;12.41;100.00
3434;BME280;1730;41.932;25.548;2024-03-29T00:11:00;99498.53;;;12.12;100.00
3434;BME280;1730;41.932;25.548;2024-03-29T00:13:26;99782.56;;;13.67;100.00
3434;BME280;1730;41.932;25.548;2024-03-29T00:15:53;99292.50;;;10.73;100.00
3434;BME280;1730;41.932;25.548;2024-03-29T00:18:18;99804.50;;;13.81;100.00
3434;BME280;1730;41.932;25.548;2024-03-29T00:20:44;99532.72;;;12.21;100.00
3434;BME280;1730;41.932;25.548;2024-03-29T00:23:09;99784.16;;;13.77;100.00
3434;BME280;1730;41.932;25.548;2024-03-29T00:25:36;99681.81;;;13.03;100.00
3434;BME280;1730;41.932;25.548;2024-03-29T00:28:02;99786.09;;;13.59;100.00
3434;BME280;1730;41.932;25.548;2024-03-29T00:30:28;99616.25;;;12.50;100.00
3434;BME280;1730;41.932;25.548;2024-03-29T00:32:54;99786.28;;;13.32;100.00
3434;BME280;1730;41.932;25.548;2024-03-29T00:35:19;99652.84;;;12.36;100.00
3434;BME280;1730;41.932;25.548;2024-03-29T00:37:46;99691.13;;;12.49;100.00
3434;BME280;1730;41.932;25.548;2024-03-29T00:40:11;99870.16;;;13.41;100.00
3434;BME280;1730;41.932;25.548;2024-03-29T00:42:37;99854.38;;;13.37;100.00
3434;BME280;1730;41.932;25.548;2024-03-29T00:45:02;99734.59;;;12.74;100.00
3434;BME280;1730;41.932;25.548;2024-03-29T00:47:28;99816.28;;;12.95;100.00
3434;BME280;1730;41.932;25.548;2024-03-29T00:49:54;99843.63;;;13.53;100.00
3434;BME280;1730;41.932;25.548;2024-03-29T00:52:20;99494.88;;;11.52;100.00
3434;BME280;1730;41.932;25.548;2024-03-29T00:54:46;99711.47;;;12.79;100.00
3434;BME280;1730;41.932;25.548;2024-03-29T00:57:11;99477.31;;;11.30;100.00
3434;BME280;1730;41.932;25.548;2024-03-29T00:59:39;99638.91;;;11.88;100.00
3434;BME280;1730;41.932;25.548;2024-03-29T01:02:05;99808.09;;;12.87;100.00
3434;BME280;1730;41.932;25.548;2024-03-29T01:04:30;99448.44;;;10.32;100.00
3434;BME280;1730;41.932;25.548;2024-03-29T01:06:56;99906.16;;;12.81;100.00
3434;BME280;1730;41.932;25.548;2024-03-29T01:09:22;99919.31;;;12.76;100.00
3434;BME280;1730;41.932;25.548;2024-03-29T01:11:50;99732.59;;;11.32;100.00
3434;BME280;1730;41.932;25.548;2024-03-29T01:14:15;99943.59;;;12.40;100.00
3434;BME280;1730;41.932;25.548;2024-03-29T01:16:41;99972.59;;;12.48;100.00
3434;BME280;1730;41.932;25.548;2024-03-29T01:19:07;99619.37;;;10.30;100.00
3434;BME280;1730;41.932;25.548;2024-03-29T01:21:35;99987.03;;;12.29;100.00
3434;BME280;1730;41.932;25.548;2024-03-29T01:24:01;99997.66;;;12.13;100.00
3434;BME280;1730;41.932;25.548;2024-03-29T01:26:26;99799.50;;;10.92;100.00
3434;BME280;1730;41.932;25.548;2024-03-29T01:28:52;99819.50;;;10.99;100.00
3434;BME280;1730;41.932;25.548;2024-03-29T01:31:18;99827.06;;;10.86;100.00
3434;BME280;1730;41.932;25.548;2024-03-29T01:33:43;99836.84;;;10.97;100.00
3434;BME280;1730;41.932;25.548;2024-03-29T01:36:09;99851.31;;;11.05;100.00
3434;BME280;1730;41.932;25.548;2024-03-29T01:38:34;100029.84;;;11.97;100.00
3434;BME280;1730;41.932;25.548;2024-03-29T01:41:02;99535.63;;;8.89;100.00
3434;BME280;1730;41.932;25.548;2024-03-29T01:43:27;99305.44;;;7.50;100.00
3434;BME280;1730;41.932;25.548;2024-03-29T01:45:54;100108.19;;;12.16;100.00
3434;BME280;1730;41.932;25.548;2024-03-29T01:48:21;100018.34;;;11.85;100.00
3434;BME280;1730;41.932;25.548;2024-03-29T01:50:48;100036.81;;;11.90;100.00
3434;BME280;1730;41.932;25.548;2024-03-29T01:53:15;100036.56;;;11.73;100.00
3434;BME280;1730;41.932;25.548;2024-03-29T01:55:42;100107.81;;;11.82;100.00
3434;BME280;1730;41.932;25.548;2024-03-29T01:58:09;100080.78;;;11.72;100.00
3434;BME280;1730;41.932;25.548;2024-03-29T02:00:38;100087.03;;;11.73;100.00
3434;BME280;1730;41.932;25.548;2024-03-29T02:03:05;100083.19;;;11.66;100.00
3434;BME280;1730;41.932;25.548;2024-03-29T02:05:35;100087.84;;;11.54;100.00
3434;BME280;1730;41.932;25.548;2024-03-29T02:08:04;100112.63;;;11.69;100.00
3434;BME280;1730;41.932;25.548;2024-03-29T02:10:29;100077.34;;;11.42;100.00
3434;BME280;1730;41.932;25.548;2024-03-29T02:12:55;99744.91;;;9.54;100.00
3434;BME280;1730;41.932;25.548;2024-03-29T02:15:21;100067.81;;;11.47;100.00
3434;BME280;1730;41.932;25.548;2024-03-29T02:17:46;99943.47;;;10.81;100.00
3434;BME280;1730;41.932;25.548;2024-03-29T02:20:12;100097.97;;;11.62;100.00
3434;BME280;1730;41.932;25.548;2024-03-29T02:22:46;100108.50;;;11.65;100.00
3434;BME280;1730;41.932;25.548;2024-03-29T02:25:14;100103.91;;;11.46;100.00
3434;BME280;1730;41.932;25.548;2024-03-29T02:27:39;100107.75;;;11.63;100.00
3434;BME280;1730;41.932;25.548;2024-03-29T02:30:06;99634.53;;;8.85;100.00
3434;BME280;1730;41.932;25.548;2024-03-29T02:32:31;100110.75;;;11.69;100.00
3434;BME280;1730;41.932;25.548;2024-03-29T02:34:58;99481.00;;;8.08;100.00
3434;BME280;1730;41.932;25.548;2024-03-29T02:37:24;100005.28;;;11.04;100.00
3434;BME280;1730;41.932;25.548;2024-03-29T02:39:54;99701.41;;;9.09;100.00
3434;BME280;1730;41.932;25.548;2024-03-29T02:42:20;100085.16;;;11.35;100.00
3434;BME280;1730;41.932;25.548;2024-03-29T02:44:46;100094.84;;;11.47;100.00
3434;BME280;1730;41.932;25.548;2024-03-29T02:47:12;99630.50;;;8.70;100.00
3434;BME280;1730;41.932;25.548;2024-03-29T02:49:39;100055.44;;;11.25;100.00
3434;BME280;1730;41.932;25.548;2024-03-29T02:52:04;99755.59;;;9.65;100.00
3434;BME280;1730;41.932;25.548;2024-03-29T02:54:30;99873.59;;;10.40;100.00
3434;BME280;1730;41.932;25.548;2024-03-29T02:56:55;100009.69;;;11.24;100.00
3434;BME280;1730;41.932;25.548;2024-03-29T02:59:21;100009.44;;;11.27;100.00
3434;BME280;1730;41.932;25.548;2024-03-29T03:01:46;100020.91;;;11.19;100.00
3434;BME280;1730;41.932;25.548;2024-03-29T03:04:12;100029.00;;;11.19;100.00
3434;BME280;1730;41.932;25.548;2024-03-29T03:06:37;99873.41;;;10.22;100.00
3434;BME280;1730;41.932;25.548;2024-03-29T03:09:04;100033.19;;;10.74;100.00
3434;BME280;1730;41.932;25.548;2024-03-29T03:11:48;99564.88;;;8.22;100.00
3434;BME280;1730;41.932;25.548;2024-03-29T03:14:13;100060.53;;;11.19;100.00
3434;BME280;1730;41.932;25.548;2024-03-29T03:16:39;99966.19;;;10.69;100.00
3434;BME280;1730;41.932;25.548;2024-03-29T03:19:04;100055.72;;;11.13;100.00
3434;BME280;1730;41.932;25.548;2024-03-29T03:21:30;99908.59;;;10.21;100.00
3434;BME280;1730;41.932;25.548;2024-03-29T03:23:55;99852.03;;;9.90;100.00
3434;BME280;1730;41.932;25.548;2024-03-29T03:26:21;100088.13;;;11.22;100.00
3434;BME280;1730;41.932;25.548;2024-03-29T03:28:47;100078.88;;;11.15;100.00
3434;BME280;1730;41.932;25.548;2024-03-29T03:31:12;100059.16;;;11.34;100.00
3434;BME280;1730;41.932;25.548;2024-03-29T03:33:39;100072.38;;;11.27;100.00
3434;BME280;1730;41.932;25.548;2024-03-29T03:36:05;100041.25;;;11.52;100.00
3434;BME280;1730;41.932;25.548;2024-03-29T03:38:31;100003.75;;;11.49;100.00
3434;BME280;1730;41.932;25.548;2024-03-29T03:40:58;99983.69;;;11.32;100.00
3434;BME280;1730;41.932;25.548;2024-03-29T03:43:24;99960.56;;;11.01;100.00
3434;BME280;1730;41.932;25.548;2024-03-29T03:45:49;99689.84;;;9.18;100.00
3434;BME280;1730;41.932;25.548;2024-03-29T03:48:15;99671.53;;;9.02;100.00
3434;BME280;1730;41.932;25.548;2024-03-29T03:50:41;100041.94;;;11.16;100.00
3434;BME280;1730;41.932;25.548;2024-03-29T03:53:07;100053.47;;;11.27;100.00
3434;BME280;1730;41.932;25.548;2024-03-29T03:55:36;100066.69;;;11.30;100.00
3434;BME280;1730;41.932;25.548;2024-03-29T03:58:04;100071.22;;;11.30;100.00
3434;BME280;1730;41.932;25.548;2024-03-29T04:00:31;99919.47;;;10.59;100.00
3434;BME280;1730;41.932;25.548;2024-03-29T04:02:57;100044.81;;;11.62;100.00
3434;BME280;1730;41.932;25.548;2024-03-29T04:05:23;100003.75;;;11.40;100.00
3434;BME280;1730;41.932;25.548;2024-03-29T04:07:50;99852.62;;;10.44;100.00
3434;BME280;1730;41.932;25.548;2024-03-29T04:10:15;99987.22;;;11.23;100.00
3434;BME280;1730;41.932;25.548;2024-03-29T04:12:41;100021.19;;;11.16;100.00
3434;BME280;1730;41.932;25.548;2024-03-29T04:15:06;99981.69;;;11.06;100.00
3434;BME280;1730;41.932;25.548;2024-03-29T04:17:32;100039.53;;;11.32;100.00
3434;BME280;1730;41.932;25.548;2024-03-29T04:19:59;100007.84;;;11.24;100.00
3434;BME280;1730;41.932;25.548;2024-03-29T04:22:27;100042.81;;;11.36;100.00
3434;BME280;1730;41.932;25.548;2024-03-29T04:24:53;100029.28;;;11.45;100.00
3434;BME280;1730;41.932;25.548;2024-03-29T04:27:18;99876.19;;;10.61;100.00
3434;BME280;1730;41.932;25.548;2024-03-29T04:29:44;100040.69;;;11.78;100.00
3434;BME280;1730;41.932;25.548;2024-03-29T04:32:09;99601.25;;;9.55;100.00
3434;BME280;1730;41.932;25.548;2024-03-29T04:34:35;99618.84;;;9.69;100.00
3434;BME280;1730;41.932;25.548;2024-03-29T04:37:00;99915.50;;;11.96;100.00
3434;BME280;1730;41.932;25.548;2024-03-29T04:39:29;99709.53;;;11.11;100.00
3434;BME280;1730;41.932;25.548;2024-03-29T04:41:56;99862.56;;;12.66;100.00
3434;BME280;1730;41.932;25.548;2024-03-29T04:44:31;99748.87;;;13.35;100.00
3434;BME280;1730;41.932;25.548;2024-03-29T04:47:20;99209.75;;;11.33;100.00
3434;BME280;1730;41.932;25.548;2024-03-29T04:49:46;99519.19;;;13.95;100.00
3434;BME280;1730;41.932;25.548;2024-03-29T04:52:20;99430.19;;;14.15;100.00
3434;BME280;1730;41.932;25.548;2024-03-29T04:57:22;99322.25;;;14.72;100.00
3434;BME280;1730;41.932;25.548;2024-03-29T04:59:49;99300.44;;;14.80;100.00
3434;BME280;1730;41.932;25.548;2024-03-29T05:02:16;98851.94;;;12.94;100.00
3434;BME280;1730;41.932;25.548;2024-03-29T05:04:41;98775.13;;;13.47;100.00
3434;BME280;1730;41.932;25.548;2024-03-29T05:07:08;98844.56;;;13.92;100.00
3434;BME280;1730;41.932;25.548;2024-03-29T05:09:33;99140.72;;;15.72;100.00
3434;BME280;1730;41.932;25.548;2024-03-29T05:11:59;98719.38;;;13.24;100.00
3434;BME280;1730;41.932;25.548;2024-03-29T05:14:26;99136.94;;;16.09;100.00
3434;BME280;1730;41.932;25.548;2024-03-29T05:16:53;99127.44;;;16.47;100.00
3434;BME280;1730;41.932;25.548;2024-03-29T05:19:20;99128.78;;;16.79;100.00
3434;BME280;1730;41.932;25.548;2024-03-29T05:21:55;99125.72;;;16.61;100.00
3434;BME280;1730;41.932;25.548;2024-03-29T05:24:20;99126.00;;;17.41;100.00
3434;BME280;1730;41.932;25.548;2024-03-29T05:26:46;99121.34;;;17.76;100.00
3434;BME280;1730;41.932;25.548;2024-03-29T05:29:12;99117.13;;;17.67;100.00
3434;BME280;1730;41.932;25.548;2024-03-29T05:31:38;99137.09;;;17.40;100.00
3434;BME280;1730;41.932;25.548;2024-03-29T05:34:03;99120.12;;;17.92;100.00
3434;BME280;1730;41.932;25.548;2024-03-29T05:36:30;98991.25;;;17.83;100.00
3434;BME280;1730;41.932;25.548;2024-03-29T05:38:55;98730.56;;;16.03;100.00
3434;BME280;1730;41.932;25.548;2024-03-29T05:41:21;98768.50;;;17.05;100.00
3434;BME280;1730;41.932;25.548;2024-03-29T05:43:50;98918.03;;;17.87;100.00
3434;BME280;1730;41.932;25.548;2024-03-29T05:46:16;98877.34;;;17.85;100.00
3434;BME280;1730;41.932;25.548;2024-03-29T05:48:43;99109.03;;;18.92;100.00
3434;BME280;1730;41.932;25.548;2024-03-29T05:51:08;99124.34;;;19.26;100.00
3434;BME280;1730;41.932;25.548;2024-03-29T05:53:34;98714.28;;;16.10;100.00
3434;BME280;1730;41.932;25.548;2024-03-29T05:56:09;99140.34;;;19.16;100.00
3434;BME280;1730;41.932;25.548;2024-03-29T05:58:34;99126.13;;;19.65;100.00
3434;BME280;1730;41.932;25.548;2024-03-29T06:01:00;98662.19;;;17.38;100.00
3434;BME280;1730;41.932;25.548;2024-03-29T06:03:25;99107.91;;;20.15;100.00
3434;BME280;1730;41.932;25.548;2024-03-29T06:05:51;98928.38;;;19.51;100.00
3434;BME280;1730;41.932;25.548;2024-03-29T06:08:19;99015.94;;;19.83;99.66
3434;BME280;1730;41.932;25.548;2024-03-29T06:10:46;98883.72;;;18.88;100.00
3434;BME280;1730;41.932;25.548;2024-03-29T06:13:12;98994.03;;;19.51;100.00
3434;BME280;1730;41.932;25.548;2024-03-29T06:15:55;99159.59;;;19.54;100.00
3434;BME280;1730;41.932;25.548;2024-03-29T06:18:39;99178.34;;;19.50;100.00
3434;BME280;1730;41.932;25.548;2024-03-29T06:21:05;99172.56;;;18.81;100.00
3434;BME280;1730;41.932;25.548;2024-03-29T06:23:30;99179.28;;;18.72;100.00
3434;BME280;1730;41.932;25.548;2024-03-29T06:25:57;98723.72;;;16.14;100.00
3434;BME280;1730;41.932;25.548;2024-03-29T06:28:23;99183.69;;;18.73;100.00
3434;BME280;1730;41.932;25.548;2024-03-29T06:30:48;98934.53;;;16.65;100.00
3434;BME280;1730;41.932;25.548;2024-03-29T06:33:14;98898.69;;;15.93;100.00
3434;BME280;1730;41.932;25.548;2024-03-29T06:35:39;99070.78;;;17.26;100.00
3434;BME280;1730;41.932;25.548;2024-03-29T06:38:04;99100.00;;;18.26;100.00
3434;BME280;1730;41.932;25.548;2024-03-29T06:40:30;98969.47;;;17.90;100.00
3434;BME280;1730;41.932;25.548;2024-03-29T06:42:57;98878.34;;;17.51;100.00
3434;BME280;1730;41.932;25.548;2024-03-29T06:45:25;99006.16;;;18.27;100.00
3434;BME280;1730;41.932;25.548;2024-03-29T06:47:50;99203.16;;;19.42;100.00
3434;BME280;1730;41.932;25.548;2024-03-29T06:58:04;99204.91;;;18.97;100.00
3434;BME280;1730;41.932;25.548;2024-03-29T07:00:30;99205.91;;;19.42;100.00
3434;BME280;1730;41.932;25.548;2024-03-29T07:02:58;99207.50;;;19.76;100.00
3434;BME280;1730;41.932;25.548;2024-03-29T07:05:26;99227.41;;;20.03;100.00
3434;BME280;1730;41.932;25.548;2024-03-29T07:07:52;99216.16;;;20.31;100.00
3434;BME280;1730;41.932;25.548;2024-03-29T07:10:19;99218.00;;;19.86;97.53
3434;BME280;1730;41.932;25.548;2024-03-29T07:12:44;99080.44;;;19.01;98.24
3434;BME280;1730;41.932;25.548;2024-03-29T07:15:10;98724.91;;;16.79;100.00
3434;BME280;1730;41.932;25.548;2024-03-29T07:17:36;99215.25;;;19.86;100.00
3434;BME280;1730;41.932;25.548;2024-03-29T07:20:01;98992.50;;;18.60;100.00
3434;BME280;1730;41.932;25.548;2024-03-29T07:22:29;99218.25;;;20.22;99.57
3434;BME280;1730;41.932;25.548;2024-03-29T07:24:54;99242.56;;;20.50;95.79
3434;BME280;1730;41.932;25.548;2024-03-29T07:27:20;99235.66;;;20.72;93.05
3434;BME280;1730;41.932;25.548;2024-03-29T07:29:46;98785.34;;;18.06;89.50
3434;BME280;1730;41.932;25.548;2024-03-29T07:32:12;99153.09;;;20.37;88.88
3434;BME280;1730;41.932;25.548;2024-03-29T07:34:37;99241.47;;;20.57;87.72
3434;BME280;1730;41.932;25.548;2024-03-29T07:37:05;99240.53;;;20.39;89.21
3434;BME280;1730;41.932;25.548;2024-03-29T07:39:30;99238.56;;;20.84;91.74
3434;BME280;1730;41.932;25.548;2024-03-29T07:41:56;99227.81;;;21.07;91.63
3434;BME280;1730;41.932;25.548;2024-03-29T07:44:23;98849.66;;;18.53;90.49
3434;BME280;1730;41.932;25.548;2024-03-29T07:46:49;99021.00;;;19.48;94.93
3434;BME280;1730;41.932;25.548;2024-03-29T07:49:14;99236.56;;;20.97;99.00
3434;BME280;1730;41.932;25.548;2024-03-29T07:51:41;99137.22;;;20.46;97.93
3434;BME280;1730;41.932;25.548;2024-03-29T07:54:06;99228.03;;;21.05;97.26
3434;BME280;1730;41.932;25.548;2024-03-29T07:56:32;98896.66;;;19.12;94.19
3434;BME280;1730;41.932;25.548;2024-03-29T07:58:57;99104.47;;;20.26;91.13
3434;BME280;1730;41.932;25.548;2024-03-29T08:01:23;99184.78;;;20.83;91.87
3434;BME280;1730;41.932;25.548;2024-03-29T08:03:52;99240.25;;;21.34;91.62
3434;BME280;1730;41.932;25.548;2024-03-29T08:06:21;99020.03;;;19.98;89.75
3434;BME280;1730;41.932;25.548;2024-03-29T08:08:49;99241.59;;;21.68;87.38
3434;BME280;1730;41.932;25.548;2024-03-29T08:11:15;99153.78;;;21.32;84.62
3434;BME280;1730;41.932;25.548;2024-03-29T08:13:40;99115.69;;;21.24;81.36
3434;BME280;1730;41.932;25.548;2024-03-29T08:16:06;99276.09;;;22.19;80.38
3434;BME280;1730;41.932;25.548;2024-03-29T08:18:32;99022.28;;;20.94;75.00
3434;BME280;1730;41.932;25.548;2024-03-29T08:20:59;99240.00;;;22.33;73.24
3434;BME280;1730;41.932;25.548;2024-03-29T08:23:25;98942.41;;;20.11;70.57
3434;BME280;1730;41.932;25.548;2024-03-29T08:25:51;99218.75;;;22.11;71.66
3434;BME280;1730;41.932;25.548;2024-03-29T08:28:21;98811.31;;;20.03;70.94
3434;BME280;1730;41.932;25.548;2024-03-29T08:31:02;99243.69;;;22.69;69.81
3434;BME280;1730;41.932;25.548;2024-03-29T08:33:28;99273.03;;;22.75;69.62
3434;BME280;1730;41.932;25.548;2024-03-29T08:35:54;99071.69;;;21.78;71.94
3434;BME280;1730;41.932;25.548;2024-03-29T08:38:19;99256.34;;;23.00;73.32
3434;BME280;1730;41.932;25.548;2024-03-29T08:40:45;99149.81;;;22.12;70.17
3434;BME280;1730;41.932;25.548;2024-03-29T08:43:14;99251.03;;;22.75;68.60
3434;BME280;1730;41.932;25.548;2024-03-29T08:45:41;99212.19;;;22.71;68.74
3434;BME280;1730;41.932;25.548;2024-03-29T08:48:07;99279.72;;;23.09;70.41
3434;BME280;1730;41.932;25.548;2024-03-29T08:50:34;99246.84;;;23.37;70.25
3434;BME280;1730;41.932;25.548;2024-03-29T08:53:01;99251.53;;;23.25;69.68
3434;BME280;1730;41.932;25.548;2024-03-29T08:55:27;99253.44;;;23.48;69.62
3434;BME280;1730;41.932;25.548;2024-03-29T08:57:53;98827.53;;;21.19;68.80
3434;BME280;1730;41.932;25.548;2024-03-29T09:00:19;99271.31;;;23.68;65.49
3434;BME280;1730;41.932;25.548;2024-03-29T09:02:46;99249.16;;;23.87;65.00
3434;BME280;1730;41.932;25.548;2024-03-29T09:05:16;99242.94;;;23.68;65.31
3434;BME280;1730;41.932;25.548;2024-03-29T09:07:42;98965.31;;;22.27;64.66
3434;BME280;1730;41.932;25.548;2024-03-29T09:10:07;98805.75;;;21.24;63.67
3434;BME280;1730;41.932;25.548;2024-03-29T09:12:33;99176.28;;;23.94;63.14
3434;BME280;1730;41.932;25.548;2024-03-29T09:14:59;99065.25;;;23.65;62.26
3434;BME280;1730;41.932;25.548;2024-03-29T09:17:24;99132.75;;;23.79;59.93
3434;BME280;1730;41.932;25.548;2024-03-29T09:19:52;98890.44;;;22.31;57.93
3434;BME280;1730;41.932;25.548;2024-03-29T09:22:41;99132.06;;;24.01;58.39
3434;BME280;1730;41.932;25.548;2024-03-29T09:25:08;98716.88;;;21.48;58.06
3434;BME280;1730;41.932;25.548;2024-03-29T09:27:39;99246.72;;;24.98;57.39
3434;BME280;1730;41.932;25.548;2024-03-29T09:30:10;99242.81;;;24.38;57.28
3434;BME280;1730;41.932;25.548;2024-03-29T09:32:36;99124.63;;;24.01;56.88
3434;BME280;1730;41.932;25.548;2024-03-29T09:35:01;99106.28;;;24.07;57.96
3434;BME280;1730;41.932;25.548;2024-03-29T09:37:28;99250.22;;;25.10;57.03
3434;BME280;1730;41.932;25.548;2024-03-29T09:39:54;99255.75;;;24.65;57.30
3434;BME280;1730;41.932;25.548;2024-03-29T09:42:22;99242.38;;;25.02;55.82
3434;BME280;1730;41.932;25.548;2024-03-29T09:44:50;99242.72;;;25.23;54.93
3434;BME280;1730;41.932;25.548;2024-03-29T09:47:18;99128.50;;;24.29;53.96
3434;BME280;1730;41.932;25.548;2024-03-29T09:49:47;99245.25;;;24.79;52.92
3434;BME280;1730;41.932;25.548;2024-03-29T09:52:14;99277.91;;;24.99;53.61
3434;BME280;1730;41.932;25.548;2024-03-29T09:54:41;98887.84;;;23.45;52.64
3434;BME280;1730;41.932;25.548;2024-03-29T09:57:07;99230.44;;;24.85;51.84
3434;BME280;1730;41.932;25.548;2024-03-29T09:59:33;98996.13;;;23.50;51.89
3434;BME280;1730;41.932;25.548;2024-03-29T10:02:00;99226.91;;;25.18;52.47
3434;BME280;1730;41.932;25.548;2024-03-29T10:04:33;99233.50;;;25.50;53.37
3434;BME280;1730;41.932;25.548;2024-03-29T10:07:00;99109.41;;;24.89;52.97
3434;BME280;1730;41.932;25.548;2024-03-29T10:09:25;99121.69;;;24.81;52.21
3434;BME280;1730;41.932;25.548;2024-03-29T10:11:54;99222.87;;;25.59;48.41
3434;BME280;1730;41.932;25.548;2024-03-29T10:14:20;99222.72;;;25.49;48.96
3434;BME280;1730;41.932;25.548;2024-03-29T10:16:57;99214.16;;;25.50;50.40
3434;BME280;1730;41.932;25.548;2024-03-29T10:19:24;99207.22;;;25.65;50.60
3434;BME280;1730;41.932;25.548;2024-03-29T10:21:51;99215.37;;;25.76;49.08
3434;BME280;1730;41.932;25.548;2024-03-29T10:24:17;99214.66;;;25.64;49.21
3434;BME280;1730;41.932;25.548;2024-03-29T10:26:43;99213.91;;;25.52;49.38
3434;BME280;1730;41.932;25.548;2024-03-29T10:29:10;99205.50;;;25.80;49.86
3434;BME280;1730;41.932;25.548;2024-03-29T10:31:43;99214.59;;;25.97;50.11
3434;BME280;1730;41.932;25.548;2024-03-29T10:34:18;99048.47;;;24.90;50.03
3434;BME280;1730;41.932;25.548;2024-03-29T10:36:47;99040.09;;;24.85;48.99
3434;BME280;1730;41.932;25.548;2024-03-29T10:39:12;99201.94;;;26.23;49.09
3434;BME280;1730;41.932;25.548;2024-03-29T10:41:42;99193.50;;;26.35;48.64
3434;BME280;1730;41.932;25.548;2024-03-29T10:44:12;99201.19;;;26.55;47.27
3434;BME280;1730;41.932;25.548;2024-03-29T10:46:38;99205.97;;;26.64;46.21
3434;BME280;1730;41.932;25.548;2024-03-29T10:49:07;99139.28;;;26.34;45.98
3434;BME280;1730;41.932;25.548;2024-03-29T10:51:39;99187.50;;;26.43;46.36
3434;BME280;1730;41.932;25.548;2024-03-29T10:54:08;99182.97;;;26.59;46.36
3434;BME280;1730;41.932;25.548;2024-03-29T10:56:36;98993.94;;;25.63;45.04
3434;BME280;1730;41.932;25.548;2024-03-29T10:59:22;99179.41;;;26.90;44.20
3434;BME280;1730;41.932;25.548;2024-03-29T11:01:54;99144.03;;;26.97;43.61
3434;BME280;1730;41.932;25.548;2024-03-29T11:04:29;99172.84;;;27.01;43.88
3434;BME280;1730;41.932;25.548;2024-03-29T11:07:01;99167.59;;;26.73;44.77
3434;BME280;1730;41.932;25.548;2024-03-29T11:09:34;99172.44;;;27.19;44.19
3434;BME280;1730;41.932;25.548;2024-03-29T11:12:04;99148.03;;;27.11;44.11
3434;BME280;1730;41.932;25.548;2024-03-29T11:14:38;99157.84;;;27.29;43.97
3434;BME280;1730;41.932;25.548;2024-03-29T11:17:07;99066.53;;;26.97;43.43
3434;BME280;1730;41.932;25.548;2024-03-29T11:19:33;99148.22;;;27.89;43.39
3434;BME280;1730;41.932;25.548;2024-03-29T11:21:59;98982.75;;;26.33;42.99
3434;BME280;1730;41.932;25.548;2024-03-29T11:24:26;98987.63;;;26.58;43.69
3434;BME280;1730;41.932;25.548;2024-03-29T11:26:53;99167.88;;;27.03;43.63
3434;BME280;1730;41.932;25.548;2024-03-29T11:29:20;99083.56;;;26.52;43.66
3434;BME280;1730;41.932;25.548;2024-03-29T11:31:59;98924.31;;;25.61;44.22
3434;BME280;1730;41.932;25.548;2024-03-29T11:34:24;99136.28;;;26.99;43.47
3434;BME280;1730;41.932;25.548;2024-03-29T11:36:50;99137.19;;;26.46;44.16
3434;BME280;1730;41.932;25.548;2024-03-29T11:39:22;98888.87;;;25.26;44.31
3434;BME280;1730;41.932;25.548;2024-03-29T11:41:49;99133.03;;;26.75;43.78
3434;BME280;1730;41.932;25.548;2024-03-29T11:44:16;99091.31;;;26.50;43.86
3434;BME280;1730;41.932;25.548;2024-03-29T11:46:43;99022.72;;;26.20;44.75
3434;BME280;1730;41.932;25.548;2024-03-29T11:49:12;99011.56;;;26.10;44.57
3434;BME280;1730;41.932;25.548;2024-03-29T11:51:38;98778.94;;;25.18;44.34
3434;BME280;1730;41.932;25.548;2024-03-29T11:54:07;99144.97;;;27.13;44.20
3434;BME280;1730;41.932;25.548;2024-03-29T11:56:32;99136.16;;;27.21;43.60
3434;BME280;1730;41.932;25.548;2024-03-29T11:58:58;99135.44;;;26.94;43.45
3434;BME280;1730;41.932;25.548;2024-03-29T12:01:28;99137.88;;;26.90;43.23
3434;BME280;1730;41.932;25.548;2024-03-29T12:03:55;99141.09;;;26.82;43.64
3434;BME280;1730;41.932;25.548;2024-03-29T12:06:21;99143.75;;;26.67;43.82
3434;BME280;1730;41.932;25.548;2024-03-29T12:08:53;99039.56;;;26.51;43.30
3434;BME280;1730;41.932;25.548;2024-03-29T12:11:21;99132.87;;;26.87;43.43
3434;BME280;1730;41.932;25.548;2024-03-29T12:13:47;99051.44;;;26.46;43.75
3434;BME280;1730;41.932;25.548;2024-03-29T12:16:12;99147.06;;;26.96;43.67
3434;BME280;1730;41.932;25.548;2024-03-29T12:18:47;99145.16;;;27.38;42.95
3434;BME280;1730;41.932;25.548;2024-03-29T12:21:13;99141.56;;;27.43;43.02
3434;BME280;1730;41.932;25.548;2024-03-29T12:23:47;99148.75;;;27.33;42.69
3434;BME280;1730;41.932;25.548;2024-03-29T12:26:12;98908.75;;;26.13;42.71
3434;BME280;1730;41.932;25.548;2024-03-29T12:28:38;99140.75;;;27.47;42.49
3434;BME280;1730;41.932;25.548;2024-03-29T12:31:03;99119.22;;;27.49;41.58
3434;BME280;1730;41.932;25.548;2024-03-29T12:33:29;99136.16;;;27.16;42.52
3434;BME280;1730;41.932;25.548;2024-03-29T12:35:57;99120.59;;;26.78;42.80
3434;BME280;1730;41.932;25.548;2024-03-29T12:38:23;99037.09;;;26.49;42.59
3434;BME280;1730;41.932;25.548;2024-03-29T12:40:50;98847.03;;;26.02;42.26
3434;BME280;1730;41.932;25.548;2024-03-29T12:43:20;99114.56;;;27.65;41.98
3434;BME280;1730;41.932;25.548;2024-03-29T12:45:48;99111.31;;;27.31;41.71
3434;BME280;1730;41.932;25.548;2024-03-29T12:48:16;99109.28;;;27.16;41.92
3434;BME280;1730;41.932;25.548;2024-03-29T12:50:44;99110.28;;;27.47;42.87
3434;BME280;1730;41.932;25.548;2024-03-29T12:53:12;99102.59;;;27.12;42.08
3434;BME280;1730;41.932;25.548;2024-03-29T12:55:42;99009.47;;;26.54;41.19
3434;BME280;1730;41.932;25.548;2024-03-29T12:58:11;99121.09;;;26.70;41.97
3434;BME280;1730;41.932;25.548;2024-03-29T13:00:38;99102.13;;;27.25;42.68
3434;BME280;1730;41.932;25.548;2024-03-29T13:10:56;99099.72;;;26.92;41.86
3434;BME280;1730;41.932;25.548;2024-03-29T13:13:28;99102.19;;;27.35;41.67
3434;BME280;1730;41.932;25.548;2024-03-29T13:15:55;98754.25;;;25.06;42.31
3434;BME280;1730;41.932;25.548;2024-03-29T13:18:22;98977.97;;;26.60;42.16
3434;BME280;1730;41.932;25.548;2024-03-29T13:20:47;98981.31;;;26.62;42.00
3434;BME280;1730;41.932;25.548;2024-03-29T13:23:13;99015.88;;;26.97;41.90